Time;durP1;ratioP1;P1;durP2;ratioP2;P2;SDS_P1;SDS_P2;PMS_P1;PMS_P2;Temp;Humidity;BMP_temperature;BMP_pressure;BME280_temperature;BME280_humidity;BME280_pressure;Samples;Min_cycle;Max_cycle;Signal;HPM_P1;HPM_P2
2023/10/27 00:00:08;;;;;;;13.27;11.87;;;15.80;72.70;;;;;;5071967;28;20189;-80
2023/10/27 00:02:38;;;;;;;12.67;11.40;;;15.80;72.70;;;;;;5074046;28;20169;-80
2023/10/27 00:05:05;;;;;;;13.33;11.90;;;15.80;72.60;;;;;;5069208;28;20174;-80
2023/10/27 00:07:31;;;;;;;13.30;12.10;;;15.80;72.80;;;;;;5086485;28;20665;-80
2023/10/27 00:09:57;;;;;;;13.30;11.90;;;15.80;72.90;;;;;;5070799;28;20196;-80
2023/10/27 00:12:22;;;;;;;14.03;12.63;;;15.80;72.80;;;;;;5072023;28;20188;-80
2023/10/27 00:14:48;;;;;;;14.70;13.33;;;15.80;72.90;;;;;;5069304;28;20272;-80
2023/10/27 00:17:13;;;;;;;13.90;12.27;;;15.80;72.80;;;;;;5070127;28;20260;-80
2023/10/27 00:19:39;;;;;;;14.00;12.47;;;15.80;72.60;;;;;;5070674;28;20520;-80
2023/10/27 00:22:05;;;;;;;15.33;13.77;;;15.80;72.50;;;;;;5070556;28;20432;-80
2023/10/27 00:24:30;;;;;;;14.23;12.73;;;15.80;72.60;;;;;;5071635;28;20193;-80
2023/10/27 00:26:56;;;;;;;13.87;12.43;;;15.80;72.70;;;;;;5071774;28;20201;-80
2023/10/27 00:29:21;;;;;;;13.03;11.83;;;15.80;72.60;;;;;;5070464;28;20521;-80
2023/10/27 00:31:47;;;;;;;15.37;13.83;;;15.80;72.40;;;;;;5070050;28;20185;-80
2023/10/27 00:34:13;;;;;;;14.07;12.77;;;15.80;72.50;;;;;;5066926;28;20177;-80
2023/10/27 00:36:38;;;;;;;14.50;13.00;;;15.80;72.40;;;;;;5071093;28;20181;-80
2023/10/27 00:39:04;;;;;;;15.57;14.07;;;15.80;72.30;;;;;;5054591;28;20573;-80
2023/10/27 00:41:30;;;;;;;15.63;13.90;;;15.80;72.30;;;;;;5072676;28;20172;-80
2023/10/27 00:43:56;;;;;;;14.03;12.73;;;15.80;72.30;;;;;;5070639;28;20665;-80
2023/10/27 00:46:22;;;;;;;13.23;11.93;;;15.80;72.20;;;;;;5069747;28;20180;-80
2023/10/27 00:48:48;;;;;;;13.73;11.80;;;15.70;72.00;;;;;;5071795;28;20205;-80
2023/10/27 00:51:15;;;;;;;13.03;11.83;;;15.70;72.20;;;;;;5075531;28;20183;-80
2023/10/27 00:53:41;;;;;;;13.20;11.80;;;15.70;72.40;;;;;;5070819;28;20188;-80
2023/10/27 00:56:07;;;;;;;14.67;13.17;;;15.70;72.40;;;;;;5074252;28;20181;-80
2023/10/27 00:58:33;;;;;;;13.50;12.10;;;15.70;72.30;;;;;;5069994;28;20189;-80
2023/10/27 01:01:03;;;;;;;13.43;12.13;;;15.60;72.10;;;;;;5071243;28;20169;-80
2023/10/27 01:03:29;;;;;;;13.80;12.50;;;15.60;72.20;;;;;;5067170;28;20194;-80
2023/10/27 01:05:55;;;;;;;15.07;13.63;;;15.60;72.40;;;;;;5071222;28;20165;-80
2023/10/27 01:08:21;;;;;;;14.90;13.50;;;15.60;72.30;;;;;;5070593;28;20544;-80
2023/10/27 01:10:46;;;;;;;13.77;12.57;;;15.60;72.20;;;;;;5070006;28;20268;-80
2023/10/27 01:13:18;;;;;;;13.77;12.47;;;15.60;72.20;;;;;;5069456;28;20182;-80
2023/10/27 01:15:43;;;;;;;14.70;13.27;;;15.60;72.40;;;;;;5073313;28;20180;-80
2023/10/27 01:18:09;;;;;;;13.97;12.57;;;15.60;72.20;;;;;;5070407;28;20202;-80
2023/10/27 01:20:35;;;;;;;13.63;12.33;;;15.60;72.00;;;;;;5088313;28;20176;-80
2023/10/27 01:23:02;;;;;;;12.33;11.17;;;15.60;71.80;;;;;;5085920;28;20268;-80
2023/10/27 01:25:28;;;;;;;15.60;14.10;;;15.50;72.00;;;;;;5072144;28;20535;-80
2023/10/27 01:27:53;;;;;;;16.50;14.90;;;15.50;72.20;;;;;;5071623;28;20209;-80
2023/10/27 01:30:19;;;;;;;15.37;13.80;;;15.60;72.20;;;;;;5069337;28;20259;-80
2023/10/27 01:32:45;;;;;;;15.07;13.47;;;15.60;71.90;;;;;;5068176;28;20201;-80
2023/10/27 01:35:11;;;;;;;18.10;15.13;;;15.50;71.80;;;;;;5068474;28;20181;-80
2023/10/27 01:37:37;;;;;;;14.47;13.07;;;15.50;71.90;;;;;;5069361;28;20191;-80
2023/10/27 01:40:05;;;;;;;13.63;12.37;;;15.50;71.80;;;;;;5068299;28;20258;-80
2023/10/27 01:42:34;;;;;;;14.67;13.17;;;15.50;71.70;;;;;;5075001;28;20184;-80
2023/10/27 01:45:03;;;;;;;13.83;12.53;;;15.50;72.00;;;;;;5079441;28;20216;-80
2023/10/27 01:47:29;;;;;;;16.57;13.10;;;15.40;71.90;;;;;;5068217;28;20217;-80
2023/10/27 01:49:55;;;;;;;14.03;12.63;;;15.50;71.90;;;;;;5070315;28;20183;-80
2023/10/27 01:52:21;;;;;;;13.23;11.87;;;15.50;72.00;;;;;;5068281;28;20192;-80
2023/10/27 01:54:46;;;;;;;12.90;11.60;;;15.50;71.90;;;;;;5072537;28;20183;-80
2023/10/27 01:57:12;;;;;;;13.70;11.90;;;15.50;71.80;;;;;;5071094;28;20201;-80
2023/10/27 01:59:37;;;;;;;12.60;11.40;;;15.50;71.80;;;;;;5072245;28;20173;-80
2023/10/27 02:02:03;;;;;;;16.10;12.13;;;15.40;71.60;;;;;;5079640;28;20177;-80
2023/10/27 02:04:33;;;;;;;13.67;12.27;;;15.40;71.80;;;;;;5069559;28;20637;-79
2023/10/27 02:07:23;;;;;;;12.47;11.20;;;15.40;71.70;;;;;;5068069;28;20567;-80
2023/10/27 02:09:49;;;;;;;12.47;11.17;;;15.40;71.70;;;;;;5058649;28;20512;-80
2023/10/27 02:12:18;;;;;;;13.47;12.17;;;15.50;71.60;;;;;;5069608;28;20188;-80
2023/10/27 02:14:43;;;;;;;13.47;12.07;;;15.40;71.70;;;;;;5070802;28;20180;-80
2023/10/27 02:17:11;;;;;;;12.30;11.10;;;15.40;71.60;;;;;;5083707;28;20272;-80
2023/10/27 02:19:37;;;;;;;13.60;11.67;;;15.40;71.60;;;;;;5064019;28;20181;-80
2023/10/27 02:22:02;;;;;;;17.73;12.60;;;15.40;71.40;;;;;;5069423;28;20572;-80
2023/10/27 02:24:53;;;;;;;11.43;10.23;;;15.40;71.30;;;;;;5068555;28;20189;-80
2023/10/27 02:27:18;;;;;;;10.90;9.90;;;15.40;71.20;;;;;;5069778;28;20204;-80
2023/10/27 02:29:44;;;;;;;11.37;10.17;;;15.30;71.30;;;;;;5074993;28;20526;-80
2023/10/27 02:32:10;;;;;;;12.13;10.83;;;15.30;71.50;;;;;;5071810;28;20223;-80
2023/10/27 02:34:35;;;;;;;15.10;11.07;;;15.30;71.40;;;;;;5074525;28;20176;-80
2023/10/27 02:37:01;;;;;;;11.70;10.60;;;15.30;71.50;;;;;;5073114;28;20652;-80
2023/10/27 02:39:26;;;;;;;11.67;10.57;;;15.30;71.30;;;;;;5087452;28;20180;-80
2023/10/27 02:41:52;;;;;;;13.93;10.00;;;15.30;71.30;;;;;;5075511;28;20177;-81
2023/10/27 02:44:17;;;;;;;12.27;11.07;;;15.30;71.20;;;;;;5071373;28;20299;-80
2023/10/27 02:46:43;;;;;;;11.50;10.30;;;15.30;71.00;;;;;;5071648;28;20710;-80
2023/10/27 02:49:09;;;;;;;12.03;9.73;;;15.20;71.20;;;;;;5071819;28;20188;-80
2023/10/27 02:51:34;;;;;;;11.57;10.43;;;15.20;71.40;;;;;;5070546;28;20178;-80
2023/10/27 02:54:01;;;;;;;14.83;10.63;;;15.20;71.40;;;;;;5075564;28;20248;-80
2023/10/27 02:56:27;;;;;;;11.47;10.13;;;15.30;71.50;;;;;;5073841;28;20633;-80
2023/10/27 02:58:52;;;;;;;12.40;11.20;;;15.30;71.20;;;;;;5071210;28;20188;-80
2023/10/27 03:01:18;;;;;;;13.53;11.07;;;15.30;72.20;;;;;;5072054;28;20179;-80
2023/10/27 03:03:44;;;;;;;17.70;11.10;;;15.30;71.40;;;;;;5071940;28;20201;-80
2023/10/27 03:06:11;;;;;;;14.63;10.57;;;15.30;71.10;;;;;;5056414;28;20177;-80
2023/10/27 03:08:38;;;;;;;14.10;11.37;;;15.30;71.10;;;;;;5085286;28;20613;-80
2023/10/27 03:11:04;;;;;;;12.80;11.30;;;15.30;71.10;;;;;;5072781;28;20180;-79
2023/10/27 03:13:32;;;;;;;10.37;9.37;;;15.30;71.10;;;;;;5070873;28;20516;-80
2023/10/27 03:16:02;;;;;;;12.40;10.37;;;15.30;70.80;;;;;;5070060;28;20242;-80
2023/10/27 03:18:27;;;;;;;11.50;10.30;;;15.30;70.60;;;;;;5071834;28;20201;-80
2023/10/27 03:20:55;;;;;;;12.70;11.07;;;15.20;70.90;;;;;;5073249;28;20200;-80
2023/10/27 03:23:21;;;;;;;10.77;9.73;;;15.30;71.10;;;;;;5071208;28;20189;-80
2023/10/27 03:25:47;;;;;;;12.63;11.20;;;15.20;70.80;;;;;;5071887;28;20177;-80
2023/10/27 03:28:12;;;;;;;12.23;11.07;;;15.30;70.90;;;;;;5071340;28;20284;-80
2023/10/27 03:30:38;;;;;;;12.40;10.87;;;15.30;70.80;;;;;;5071421;28;20188;-80
2023/10/27 03:33:04;;;;;;;13.67;11.77;;;15.30;70.60;;;;;;5074412;28;20173;-80
2023/10/27 03:35:30;;;;;;;13.73;11.70;;;15.30;70.50;;;;;;5072045;28;20555;-80
2023/10/27 03:37:56;;;;;;;12.77;11.07;;;15.20;70.40;;;;;;5074111;28;20238;-80
2023/10/27 03:40:22;;;;;;;13.73;11.93;;;15.20;70.60;;;;;;5072061;28;20208;-80
2023/10/27 03:42:47;;;;;;;14.60;13.10;;;15.30;70.60;;;;;;5069796;28;20181;-80
2023/10/27 03:45:13;;;;;;;14.33;12.90;;;15.30;70.50;;;;;;5072986;28;20235;-80
2023/10/27 03:47:38;;;;;;;14.97;13.47;;;15.30;70.40;;;;;;5074555;28;20205;-80
2023/10/27 03:50:05;;;;;;;14.33;12.67;;;15.30;70.30;;;;;;5071885;28;20185;-79
2023/10/27 03:52:30;;;;;;;14.33;12.83;;;15.30;70.20;;;;;;5071771;28;20188;-80
2023/10/27 03:54:56;;;;;;;17.50;12.57;;;15.20;70.20;;;;;;5069420;28;20177;-80
2023/10/27 03:57:21;;;;;;;15.67;11.20;;;15.20;70.20;;;;;;5071642;28;20237;-80
2023/10/27 03:59:47;;;;;;;13.67;11.70;;;15.20;70.30;;;;;;5072879;28;20222;-78
2023/10/27 04:02:13;;;;;;;13.83;12.43;;;15.20;70.40;;;;;;5071327;28;20184;-78
2023/10/27 04:04:38;;;;;;;17.93;14.00;;;15.20;70.50;;;;;;5068774;28;20633;-77
2023/10/27 04:07:04;;;;;;;16.60;14.43;;;15.20;70.40;;;;;;5071158;28;20197;-78
2023/10/27 04:09:32;;;;;;;13.53;12.20;;;15.20;70.30;;;;;;5070833;28;20298;-78
2023/10/27 04:11:58;;;;;;;14.33;12.20;;;15.20;70.30;;;;;;5071979;28;20370;-78
2023/10/27 04:14:23;;;;;;;13.63;11.87;;;15.20;70.40;;;;;;5071118;28;20368;-78
2023/10/27 04:16:49;;;;;;;14.53;12.53;;;15.20;70.40;;;;;;5070718;28;20185;-78
2023/10/27 04:19:15;;;;;;;12.90;11.47;;;15.20;70.50;;;;;;5069925;28;20843;-77
2023/10/27 04:21:40;;;;;;;14.30;11.47;;;15.20;70.40;;;;;;5070433;28;20680;-78
2023/10/27 04:24:06;;;;;;;15.17;11.83;;;15.20;70.40;;;;;;5071849;28;20196;-78
2023/10/27 04:26:32;;;;;;;11.57;10.47;;;15.20;70.40;;;;;;5067509;28;20169;-78
2023/10/27 04:28:57;;;;;;;14.17;12.77;;;15.20;70.40;;;;;;5069613;28;20245;-81
2023/10/27 04:31:23;;;;;;;13.67;12.17;;;15.20;70.40;;;;;;5072137;28;20184;-80
2023/10/27 04:33:49;;;;;;;13.77;12.37;;;15.20;70.40;;;;;;5075159;28;20621;-79
2023/10/27 04:36:15;;;;;;;13.83;12.43;;;15.20;70.30;;;;;;5080418;28;20204;-80
2023/10/27 04:38:42;;;;;;;13.70;12.17;;;15.20;70.40;;;;;;5073572;28;20204;-80
2023/10/27 04:41:08;;;;;;;14.53;12.90;;;15.20;70.30;;;;;;5072605;28;20176;-80
2023/10/27 04:43:35;;;;;;;13.60;12.17;;;15.20;70.20;;;;;;5070139;28;20177;-80
2023/10/27 04:46:01;;;;;;;15.53;12.43;;;15.10;69.90;;;;;;5071255;28;20201;-79
2023/10/27 04:48:27;;;;;;;14.70;12.03;;;15.10;70.20;;;;;;5087226;28;20286;-82
2023/10/27 04:50:58;;;;;;;12.87;11.57;;;15.10;70.20;;;;;;5071528;28;20177;-80
2023/10/27 04:53:24;;;;;;;14.73;12.37;;;15.10;70.20;;;;;;5070332;28;20188;-80
2023/10/27 04:55:50;;;;;;;13.73;11.73;;;15.10;70.20;;;;;;5070208;28;20181;-80
2023/10/27 04:58:16;;;;;;;12.73;11.53;;;15.10;70.10;;;;;;5069910;28;20294;-79
2023/10/27 05:00:41;;;;;;;14.07;12.60;;;15.10;70.20;;;;;;5070726;28;20180;-79
2023/10/27 05:03:08;;;;;;;12.43;11.30;;;15.10;70.20;;;;;;5088661;28;20260;-79
2023/10/27 05:05:33;;;;;;;15.07;11.77;;;15.10;70.00;;;;;;5080481;28;20181;-79
2023/10/27 05:07:59;;;;;;;13.80;11.90;;;15.10;70.10;;;;;;5070404;28;20258;-79
2023/10/27 05:10:25;;;;;;;13.90;11.33;;;15.10;70.10;;;;;;5070113;28;20188;-79
2023/10/27 05:12:50;;;;;;;14.60;13.13;;;15.10;70.10;;;;;;5072151;28;20174;-78
2023/10/27 05:15:16;;;;;;;15.33;13.43;;;15.10;70.10;;;;;;5076863;28;20550;-79
2023/10/27 05:17:42;;;;;;;15.30;13.77;;;15.10;70.10;;;;;;5071640;28;20173;-79
2023/10/27 05:20:08;;;;;;;13.77;12.37;;;15.10;69.90;;;;;;5068568;28;20208;-79
2023/10/27 05:22:33;;;;;;;15.10;13.50;;;15.10;69.90;;;;;;5070403;28;20208;-79
2023/10/27 05:25:03;;;;;;;15.30;12.67;;;15.10;69.90;;;;;;5071073;28;20235;-79
2023/10/27 05:27:29;;;;;;;14.50;13.00;;;15.10;69.90;;;;;;5086890;28;20559;-79
2023/10/27 05:29:54;;;;;;;14.90;13.40;;;15.10;69.90;;;;;;5078064;28;20259;-79
2023/10/27 05:32:20;;;;;;;17.37;14.43;;;15.10;69.70;;;;;;5073487;28;20176;-79
2023/10/27 05:34:47;;;;;;;15.47;12.83;;;15.10;69.70;;;;;;5068933;28;20212;-79
2023/10/27 05:37:13;;;;;;;14.80;13.30;;;15.10;69.60;;;;;;5072176;28;20173;-79
2023/10/27 05:39:38;;;;;;;16.67;13.73;;;15.10;69.70;;;;;;5068180;28;20526;-79
2023/10/27 05:42:04;;;;;;;16.80;13.30;;;15.10;69.70;;;;;;5070242;28;20177;-78
2023/10/27 05:44:30;;;;;;;15.70;14.10;;;15.10;69.70;;;;;;5066842;28;20236;-78
2023/10/27 05:46:58;;;;;;;16.17;14.53;;;15.10;69.70;;;;;;5088727;28;20185;-78
2023/10/27 05:49:24;;;;;;;15.60;13.63;;;15.10;69.80;;;;;;5066959;28;20193;-79
2023/10/27 05:51:51;;;;;;;18.27;15.17;;;15.10;69.70;;;;;;5064094;28;20180;-78
2023/10/27 05:54:17;;;;;;;15.83;14.07;;;15.20;69.90;;;;;;5070463;28;20177;-79
2023/10/27 05:56:43;;;;;;;16.97;14.40;;;15.20;69.90;;;;;;5069206;28;20180;-78
2023/10/27 05:59:08;;;;;;;14.23;12.87;;;15.20;69.90;;;;;;5065438;28;20503;-78
2023/10/27 06:01:34;;;;;;;16.43;14.23;;;15.20;69.70;;;;;;5065945;28;20192;-79
2023/10/27 06:04:00;;;;;;;15.43;13.93;;;15.30;69.70;;;;;;5067667;28;20264;-78
2023/10/27 06:06:27;;;;;;;14.73;13.33;;;15.30;69.70;;;;;;5067808;28;20184;-79
2023/10/27 06:08:53;;;;;;;15.90;14.27;;;15.20;69.50;;;;;;5084069;28;20208;-79
2023/10/27 06:11:19;;;;;;;14.63;13.17;;;15.20;69.60;;;;;;5066411;28;20701;-78
2023/10/27 06:13:45;;;;;;;15.00;13.50;;;15.20;69.70;;;;;;5065375;28;20291;-79
2023/10/27 06:16:10;;;;;;;18.83;16.00;;;15.30;69.70;;;;;;5068023;28;20179;-79
2023/10/27 06:18:36;;;;;;;15.63;13.97;;;15.30;69.60;;;;;;5067748;28;20218;-79
2023/10/27 06:21:02;;;;;;;17.40;15.57;;;15.30;69.60;;;;;;5070254;28;20672;-79
2023/10/27 06:23:29;;;;;;;21.27;17.80;;;15.30;69.50;;;;;;5066686;28;20180;-80
2023/10/27 06:25:55;;;;;;;16.17;14.67;;;15.20;69.60;;;;;;5066848;28;20179;-80
2023/10/27 06:28:21;;;;;;;17.10;15.03;;;15.20;69.70;;;;;;5064721;28;20266;-79
2023/10/27 06:30:46;;;;;;;18.17;16.37;;;15.20;69.80;;;;;;5063010;28;20188;-79
2023/10/27 06:33:12;;;;;;;17.60;15.27;;;15.20;69.70;;;;;;5068942;28;20180;-79
2023/10/27 06:35:38;;;;;;;17.50;15.73;;;15.20;69.70;;;;;;5057510;28;20255;-79
2023/10/27 06:38:04;;;;;;;16.83;15.03;;;15.10;69.70;;;;;;5066181;28;20192;-80
2023/10/27 06:40:30;;;;;;;20.00;16.60;;;15.10;69.70;;;;;;5065395;28;20193;-79
2023/10/27 06:42:56;;;;;;;17.80;16.00;;;15.10;69.70;;;;;;5066566;28;20629;-80
2023/10/27 06:45:21;;;;;;;18.90;16.53;;;15.10;69.80;;;;;;5068909;28;20290;-87
2023/10/27 06:47:47;;;;;;;17.90;15.47;;;15.10;69.80;;;;;;5081903;28;20200;-83
2023/10/27 06:50:13;;;;;;;18.17;15.57;;;15.00;69.70;;;;;;5060018;28;20195;-83
2023/10/27 06:52:38;;;;;;;21.63;16.20;;;15.00;69.80;;;;;;5064872;28;20272;-83
2023/10/27 06:55:04;;;;;;;18.17;16.30;;;15.10;69.70;;;;;;5067436;28;20253;-82
2023/10/27 06:57:30;;;;;;;19.30;17.30;;;15.00;69.70;;;;;;5065852;28;20188;-83
2023/10/27 06:59:56;;;;;;;18.30;16.53;;;14.90;69.80;;;;;;5068828;28;20242;-83
2023/10/27 07:02:25;;;;;;;19.50;17.50;;;14.90;69.90;;;;;;5067056;28;20177;-83
2023/10/27 07:04:50;;;;;;;18.33;16.50;;;15.00;70.10;;;;;;5064666;28;20227;-83
2023/10/27 07:07:16;;;;;;;16.60;15.10;;;15.00;70.00;;;;;;5065214;28;20232;-82
2023/10/27 07:09:42;;;;;;;17.50;15.70;;;15.10;70.00;;;;;;5066791;28;20196;-88
2023/10/27 07:12:08;;;;;;;17.63;15.70;;;15.10;69.70;;;;;;5085647;28;20196;-83
2023/10/27 07:14:36;;;;;;;18.27;16.37;;;15.10;69.70;;;;;;5067938;28;20676;-82
2023/10/27 07:17:02;;;;;;;18.17;16.47;;;15.20;69.80;;;;;;5070094;28;20188;-83
2023/10/27 07:19:28;;;;;;;17.83;16.07;;;15.20;69.60;;;;;;5068329;28;20685;-83
2023/10/27 07:21:53;;;;;;;18.37;16.40;;;15.30;69.80;;;;;;5070418;28;20272;-83
2023/10/27 07:24:19;;;;;;;17.50;15.80;;;15.30;69.80;;;;;;5071955;28;20260;-83
2023/10/27 07:26:44;;;;;;;17.20;15.50;;;15.30;69.40;;;;;;5068441;28;20180;-83
2023/10/27 07:29:10;;;;;;;16.93;15.23;;;15.30;68.60;;;;;;5071736;28;20213;-83
2023/10/27 07:31:37;;;;;;;17.53;15.70;;;15.20;69.00;;;;;;5067762;28;20185;-83
2023/10/27 07:34:05;;;;;;;18.03;16.13;;;15.30;69.30;;;;;;5070637;28;20187;-83
2023/10/27 07:36:31;;;;;;;17.63;15.93;;;15.30;69.00;;;;;;5070021;28;20637;-83
2023/10/27 07:38:58;;;;;;;17.07;15.27;;;15.40;69.00;;;;;;5088092;28;20188;-83
2023/10/27 07:41:24;;;;;;;17.87;16.00;;;15.30;68.50;;;;;;5068472;28;20181;-82
2023/10/27 07:43:49;;;;;;;16.33;14.60;;;15.30;69.00;;;;;;5068633;28;20224;-83
2023/10/27 07:46:16;;;;;;;16.13;14.37;;;15.30;68.80;;;;;;5069549;28;20181;-82
2023/10/27 07:48:42;;;;;;;16.00;14.27;;;15.30;68.80;;;;;;5071297;28;20277;-83
2023/10/27 07:51:07;;;;;;;15.50;13.90;;;15.40;68.90;;;;;;5088753;28;20268;-83
2023/10/27 07:53:33;;;;;;;15.30;13.80;;;15.40;68.90;;;;;;5070916;28;20276;-83
2023/10/27 07:55:59;;;;;;;16.27;14.67;;;15.40;69.10;;;;;;5069969;28;20177;-83
2023/10/27 07:58:25;;;;;;;15.97;14.37;;;15.50;68.80;;;;;;5085073;28;20255;-83
2023/10/27 08:00:51;;;;;;;15.27;13.77;;;15.50;68.40;;;;;;5068423;28;20243;-83
2023/10/27 08:03:21;;;;;;;14.63;13.23;;;15.50;68.70;;;;;;5070679;28;20173;-83
2023/10/27 08:05:51;;;;;;;15.17;13.67;;;15.60;69.00;;;;;;5069969;28;20271;-83
2023/10/27 08:08:17;;;;;;;15.73;14.13;;;15.70;69.10;;;;;;5069811;28;20699;-83
2023/10/27 08:10:46;;;;;;;15.53;13.93;;;15.80;68.80;;;;;;5069953;28;20209;-83
2023/10/27 08:13:12;;;;;;;15.23;13.80;;;15.80;68.60;;;;;;5084041;28;20665;-83
2023/10/27 08:15:38;;;;;;;15.77;14.27;;;15.90;68.10;;;;;;5071752;28;20621;-83
2023/10/27 08:18:05;;;;;;;15.63;14.07;;;15.90;67.90;;;;;;5085832;28;20177;-83
2023/10/27 08:20:30;;;;;;;18.10;15.43;;;15.90;67.90;;;;;;5069332;28;20263;-83
2023/10/27 08:22:56;;;;;;;16.93;15.13;;;15.90;68.10;;;;;;5067268;28;20713;-83
2023/10/27 08:25:22;;;;;;;16.40;14.70;;;15.90;68.30;;;;;;5066638;28;20268;-83
2023/10/27 08:27:51;;;;;;;14.57;13.23;;;15.90;67.70;;;;;;5070969;28;20224;-83
2023/10/27 08:30:17;;;;;;;15.83;14.23;;;15.90;67.90;;;;;;5071033;28;20173;-83
2023/10/27 08:32:43;;;;;;;15.20;13.60;;;15.90;67.90;;;;;;5069359;28;20215;-83
2023/10/27 08:35:08;;;;;;;15.53;13.93;;;15.90;67.90;;;;;;5086212;28;20192;-83
2023/10/27 08:37:34;;;;;;;16.53;14.77;;;16.00;68.90;;;;;;5068794;28;20495;-83
2023/10/27 08:40:00;;;;;;;13.07;11.77;;;16.00;67.80;;;;;;5069089;28;20198;-83
2023/10/27 08:42:32;;;;;;;13.93;12.57;;;16.10;67.70;;;;;;5070926;28;20624;-83
2023/10/27 08:44:58;;;;;;;13.33;12.13;;;16.20;67.50;;;;;;5071834;28;20267;-83
2023/10/27 08:47:26;;;;;;;13.10;11.80;;;16.20;67.20;;;;;;5068091;28;20224;-83
2023/10/27 08:49:53;;;;;;;14.00;12.60;;;16.20;66.70;;;;;;5081753;28;20242;-83
2023/10/27 08:52:19;;;;;;;13.30;12.10;;;16.20;67.10;;;;;;5067941;28;20189;-82
2023/10/27 08:54:48;;;;;;;13.17;11.90;;;16.20;67.20;;;;;;5069770;28;20248;-83
2023/10/27 08:57:13;;;;;;;14.00;12.60;;;16.30;66.50;;;;;;5066717;28;20181;-83
2023/10/27 08:59:39;;;;;;;13.73;12.43;;;16.30;66.30;;;;;;5066544;28;20698;-83
2023/10/27 09:02:05;;;;;;;14.47;13.07;;;16.30;66.20;;;;;;5069197;28;20189;-83
2023/10/27 09:04:31;;;;;;;13.60;12.20;;;16.30;66.30;;;;;;5069424;28;20196;-84
2023/10/27 09:06:57;;;;;;;12.83;11.73;;;16.30;65.80;;;;;;5070091;28;20173;-83
2023/10/27 09:09:23;;;;;;;13.03;11.83;;;16.30;65.80;;;;;;5069037;28;20177;-83
2023/10/27 09:11:49;;;;;;;13.10;11.83;;;16.30;65.50;;;;;;5068406;28;20181;-83
2023/10/27 09:14:36;;;;;;;16.57;14.07;;;16.30;65.60;;;;;;5068697;28;20181;-83
2023/10/27 09:17:05;;;;;;;13.03;11.73;;;16.30;65.40;;;;;;5066591;28;20184;-83
2023/10/27 09:19:32;;;;;;;12.80;11.43;;;16.30;64.70;;;;;;5067005;28;20539;-83
2023/10/27 09:21:58;;;;;;;12.93;11.73;;;16.30;65.00;;;;;;5069071;28;20633;-83
2023/10/27 09:24:23;;;;;;;14.40;11.60;;;16.30;64.60;;;;;;5086463;28;20214;-83
2023/10/27 09:26:49;;;;;;;12.00;10.80;;;16.30;64.50;;;;;;5067579;28;20508;-83
2023/10/27 09:29:16;;;;;;;12.37;10.60;;;16.30;64.00;;;;;;5068133;28;20212;-83
2023/10/27 09:31:43;;;;;;;12.00;9.87;;;16.30;64.10;;;;;;5067732;28;20261;-83
2023/10/27 09:34:25;;;;;;;11.43;9.63;;;16.30;64.30;;;;;;5068758;28;20189;-83
2023/10/27 09:36:54;;;;;;;9.27;8.37;;;16.20;62.70;;;;;;5067199;28;20237;-83
2023/10/27 09:39:24;;;;;;;10.23;8.57;;;16.20;63.10;;;;;;5069121;28;20169;-82
2023/10/27 09:42:06;;;;;;;10.27;9.13;;;16.20;64.00;;;;;;5067365;28;20632;-83
2023/10/27 09:44:53;;;;;;;9.50;8.50;;;16.20;63.40;;;;;;5067126;28;20239;-82
2023/10/27 09:47:28;;;;;;;13.40;10.40;;;16.10;63.60;;;;;;5069188;28;20567;-83
2023/10/27 09:50:03;;;;;;;11.17;10.07;;;16.20;64.10;;;;;;5065592;28;20184;-82
2023/10/27 09:52:29;;;;;;;11.87;9.60;;;16.20;64.00;;;;;;5061399;28;20274;-82
2023/10/27 09:54:58;;;;;;;10.70;9.70;;;16.30;64.10;;;;;;5068647;28;20268;-83
2023/10/27 09:57:26;;;;;;;11.53;10.40;;;16.30;63.90;;;;;;5069516;28;20177;-83
2023/10/27 09:59:54;;;;;;;11.83;10.63;;;16.40;63.80;;;;;;5067985;28;20191;-83
2023/10/27 10:02:22;;;;;;;11.67;10.50;;;16.40;63.50;;;;;;5068032;28;20204;-83
2023/10/27 10:04:51;;;;;;;11.47;10.47;;;16.40;64.20;;;;;;5067961;28;20180;-83
2023/10/27 10:07:40;;;;;;;13.97;11.13;;;16.40;63.60;;;;;;5066181;28;20217;-83
2023/10/27 10:10:26;;;;;;;15.67;11.13;;;16.50;63.90;;;;;;5068645;28;20189;-83
2023/10/27 10:13:06;;;;;;;11.37;9.67;;;16.50;63.70;;;;;;5067701;28;20296;-83
2023/10/27 10:15:40;;;;;;;10.63;9.63;;;16.50;63.50;;;;;;5066188;28;20177;-83
2023/10/27 10:18:39;;;;;;;11.10;9.90;;;16.40;63.20;;;;;;5069895;28;20198;-83
2023/10/27 10:21:06;;;;;;;14.67;11.47;;;16.40;63.10;;;;;;5068223;28;20605;-83
2023/10/27 10:23:37;;;;;;;12.70;11.50;;;16.40;63.00;;;;;;5069116;28;20318;-83
2023/10/27 10:26:04;;;;;;;12.03;10.67;;;16.30;63.00;;;;;;5067155;28;20641;-83
2023/10/27 10:28:33;;;;;;;11.27;10.23;;;16.30;63.40;;;;;;5067064;28;20205;-83
2023/10/27 10:31:07;;;;;;;11.60;10.40;;;16.40;63.30;;;;;;5066386;28;20694;-83
2023/10/27 10:33:34;;;;;;;12.33;11.23;;;16.40;63.30;;;;;;5066569;28;20172;-83
2023/10/27 10:36:27;;;;;;;12.13;10.47;;;16.50;63.30;;;;;;5084428;28;20173;-83
2023/10/27 10:38:55;;;;;;;11.57;10.37;;;16.50;63.00;;;;;;5066243;28;20250;-83
2023/10/27 10:41:43;;;;;;;10.37;9.37;;;16.50;62.90;;;;;;5066979;28;20255;-83
2023/10/27 10:44:16;;;;;;;10.17;8.40;;;16.50;62.80;;;;;;5065507;28;20220;-83
2023/10/27 10:50:04;;;;;;;9.63;8.73;;;16.50;62.00;;;;;;5079126;28;20285;-81
2023/10/27 10:52:30;;;;;;;12.77;8.90;;;16.60;62.60;;;;;;5077440;28;20177;-82
2023/10/27 10:54:55;;;;;;;9.43;8.50;;;16.60;62.10;;;;;;5081530;28;20188;-82
2023/10/27 10:57:21;;;;;;;9.20;8.30;;;16.60;61.90;;;;;;5083704;28;20168;-83
2023/10/27 10:59:53;;;;;;;10.10;8.83;;;16.60;61.50;;;;;;5077585;28;20185;-83
2023/10/27 11:02:21;;;;;;;9.43;7.87;;;16.60;61.10;;;;;;5076946;28;20177;-83
2023/10/27 11:04:47;;;;;;;8.30;7.50;;;16.60;61.80;;;;;;5064264;28;20273;-83
2023/10/27 11:07:16;;;;;;;7.57;6.83;;;16.60;61.80;;;;;;5071591;28;20177;-83
2023/10/27 11:10:16;;;;;;;7.00;6.40;;;16.70;61.40;;;;;;5072999;28;20173;-83
2023/10/27 11:12:42;;;;;;;8.20;6.50;;;16.70;60.40;;;;;;5068772;28;20226;-83
2023/10/27 11:15:08;;;;;;;7.23;6.63;;;16.70;59.90;;;;;;5070002;28;20177;-83
2023/10/27 11:17:51;;;;;;;7.93;6.70;;;16.70;60.00;;;;;;5068602;28;20224;-83
2023/10/27 11:20:34;;;;;;;9.57;7.87;;;16.70;60.10;;;;;;5068742;28;20196;-83
2023/10/27 11:23:10;;;;;;;7.87;7.13;;;16.80;59.90;;;;;;5066633;28;20196;-83
2023/10/27 11:25:35;;;;;;;7.40;6.70;;;16.80;60.00;;;;;;5066884;28;20271;-82
2023/10/27 11:28:26;;;;;;;8.43;7.60;;;16.80;59.90;;;;;;5068109;28;20299;-82
2023/10/27 11:31:08;;;;;;;7.63;6.93;;;16.90;59.90;;;;;;5067587;28;20652;-82
2023/10/27 11:33:55;;;;;;;8.03;7.33;;;16.90;59.90;;;;;;5068729;28;20168;-83
2023/10/27 11:36:21;;;;;;;7.60;6.90;;;16.80;59.90;;;;;;5068782;28;20313;-82
2023/10/27 11:38:47;;;;;;;6.67;6.07;;;16.90;60.40;;;;;;5067433;28;20218;-82
2023/10/27 11:41:13;;;;;;;7.33;6.63;;;16.90;60.80;;;;;;5067250;28;20181;-83
2023/10/27 11:43:41;;;;;;;8.10;6.40;;;16.90;60.90;;;;;;5067646;28;20637;-85
2023/10/27 11:46:11;;;;;;;7.27;6.57;;;16.90;61.30;;;;;;5067673;28;20238;-83
2023/10/27 11:48:37;;;;;;;7.53;5.93;;;17.00;61.50;;;;;;5068263;28;20216;-82
2023/10/27 11:51:03;;;;;;;8.33;6.53;;;17.00;60.80;;;;;;5069448;28;20193;-82
2023/10/27 11:53:28;;;;;;;7.60;6.80;;;17.00;60.20;;;;;;5069002;28;20713;-83
2023/10/27 11:55:54;;;;;;;8.90;7.43;;;17.00;59.80;;;;;;5068416;28;20231;-82
2023/10/27 11:58:19;;;;;;;7.30;6.60;;;17.00;59.60;;;;;;5070174;28;20226;-82
2023/10/27 12:00:45;;;;;;;7.80;7.00;;;17.00;59.40;;;;;;5069758;28;20180;-82
2023/10/27 12:03:11;;;;;;;8.93;7.70;;;17.00;59.70;;;;;;5067400;28;20286;-82
2023/10/27 12:05:36;;;;;;;7.03;6.33;;;17.10;60.00;;;;;;5060379;28;20189;-82
2023/10/27 12:08:02;;;;;;;7.73;7.03;;;17.10;60.00;;;;;;5065950;28;20707;-83
2023/10/27 12:10:27;;;;;;;11.17;7.37;;;17.10;60.20;;;;;;5067358;28;20188;-83
2023/10/27 12:12:53;;;;;;;8.73;7.83;;;17.10;60.00;;;;;;5068881;28;20605;-83
2023/10/27 12:15:19;;;;;;;10.63;7.43;;;17.10;59.60;;;;;;5068898;28;20168;-83
2023/10/27 12:17:46;;;;;;;8.57;7.77;;;17.10;59.40;;;;;;5064702;28;20196;-82
2023/10/27 12:20:12;;;;;;;7.67;6.97;;;17.10;59.10;;;;;;5068127;28;20180;-83
2023/10/27 12:22:45;;;;;;;7.70;7.00;;;17.10;59.20;;;;;;5068411;28;20410;-83
2023/10/27 12:25:11;;;;;;;7.17;6.50;;;17.00;59.40;;;;;;5065800;28;20177;-83
2023/10/27 12:27:37;;;;;;;7.83;7.13;;;17.00;58.80;;;;;;5065949;28;20331;-83
2023/10/27 12:30:03;;;;;;;7.87;6.47;;;17.00;59.20;;;;;;5067728;28;20264;-82
2023/10/27 12:32:32;;;;;;;8.03;6.83;;;17.00;59.80;;;;;;5067461;28;20189;-83
2023/10/27 12:34:59;;;;;;;8.77;7.07;;;17.00;59.30;;;;;;5067845;28;20192;-83